createdAt,value
2022-09-06T00:01:12.225Z,26.41
2022-09-06T00:03:41.428Z,26.41
2022-09-06T00:06:19.071Z,26.43
2022-09-06T00:08:49.365Z,26.44
2022-09-06T00:11:19.014Z,26.45
2022-09-06T00:13:48.408Z,26.46
2022-09-06T00:16:29.692Z,26.46
2022-09-06T00:18:59.101Z,26.48
2022-09-06T00:21:30.982Z,26.48
2022-09-06T00:23:59.462Z,26.49
2022-09-06T00:26:28.137Z,26.50
2022-09-06T00:28:56.734Z,26.51
2022-09-06T00:31:27.557Z,26.52
2022-09-06T00:33:56.314Z,26.53
2022-09-06T00:36:25.113Z,26.53
2022-09-06T00:38:53.639Z,26.54
2022-09-06T00:41:22.253Z,26.55
2022-09-06T00:43:50.819Z,26.59
2022-09-06T00:46:26.934Z,26.61
2022-09-06T00:49:22.873Z,26.64
2022-09-06T00:52:04.780Z,26.67
2022-09-06T00:54:34.130Z,26.69
2022-09-06T00:57:03.472Z,26.70
2022-09-06T00:59:35.657Z,26.73
2022-09-06T01:02:06.657Z,26.75
2022-09-06T01:04:35.479Z,26.77
2022-09-06T01:07:26.584Z,26.78
2022-09-06T01:10:30.133Z,26.81
2022-09-06T01:13:04.655Z,26.87
2022-09-06T01:15:41.918Z,26.91
2022-09-06T01:18:16.130Z,26.96
2022-09-06T01:21:31.513Z,26.98
2022-09-06T01:24:26.428Z,27.03
2022-09-06T01:27:32.702Z,27.04
2022-09-06T01:30:17.770Z,27.07
2022-09-06T01:32:55.215Z,27.08
2022-09-06T01:35:29.742Z,27.12
2022-09-06T01:37:59.251Z,27.14
2022-09-06T01:40:29.208Z,27.20
2022-09-06T01:42:59.169Z,27.24
2022-09-06T01:49:21.303Z,27.30
2022-09-06T01:51:58.750Z,27.36
2022-09-06T01:54:46.701Z,27.40
2022-09-06T01:57:15.272Z,27.43
2022-09-06T01:59:52.435Z,27.46
2022-09-06T02:02:33.008Z,27.48
2022-09-06T02:05:07.881Z,27.48
2022-09-06T02:07:38.433Z,27.50
2022-09-06T02:10:18.745Z,27.53
2022-09-06T02:12:52.458Z,27.56
2022-09-06T02:15:44.690Z,27.60
2022-09-06T02:18:45.184Z,27.62
2022-09-06T02:21:18.886Z,27.64
2022-09-06T02:23:48.932Z,27.68
2022-09-06T02:26:26.580Z,27.70
2022-09-06T02:28:55.723Z,27.72
2022-09-06T02:31:36.483Z,27.73
2022-09-06T02:34:06.294Z,27.75
2022-09-06T02:36:38.761Z,27.75
2022-09-06T02:39:07.621Z,27.79
2022-09-06T02:41:37.131Z,27.77
2022-09-06T02:44:05.676Z,27.76
2022-09-06T02:46:47.744Z,27.77
2022-09-06T02:49:16.282Z,27.75
2022-09-06T02:51:44.798Z,27.74
2022-09-06T02:54:13.314Z,27.74
2022-09-06T02:56:41.917Z,27.77
2022-09-06T02:59:10.419Z,27.80
2022-09-06T03:01:39.546Z,27.83
2022-09-06T03:04:08.318Z,27.85
2022-09-06T03:06:37.224Z,27.90
2022-09-06T03:09:06.169Z,27.95
2022-09-06T03:11:34.753Z,28.01
2022-09-06T03:14:06.001Z,28.11
2022-09-06T03:16:34.578Z,28.21
2022-09-06T03:19:03.201Z,28.29
2022-09-06T03:21:31.913Z,28.31
2022-09-06T03:24:00.424Z,28.38
2022-09-06T03:26:29.270Z,28.38
2022-09-06T03:28:58.126Z,28.38
2022-09-06T03:31:26.721Z,28.37
2022-09-06T03:33:55.297Z,28.37
2022-09-06T03:36:23.813Z,28.38
2022-09-06T03:38:52.541Z,28.39
2022-09-06T03:41:21.435Z,28.43
2022-09-06T03:43:49.931Z,28.45
2022-09-06T03:46:18.904Z,28.45
2022-09-06T03:48:47.593Z,28.46
2022-09-06T03:51:16.600Z,28.47
2022-09-06T03:53:45.432Z,28.49
2022-09-06T03:56:13.951Z,28.52
2022-09-06T03:58:42.568Z,28.58
2022-09-06T04:01:13.533Z,28.63
2022-09-06T04:03:43.821Z,28.68
2022-09-06T04:06:12.542Z,28.70
2022-09-06T04:08:41.479Z,28.75
2022-09-06T04:11:10.587Z,28.75
2022-09-06T04:13:39.420Z,28.76
2022-09-06T04:16:08.174Z,28.74
2022-09-06T04:18:36.821Z,28.77
2022-09-06T04:21:05.725Z,28.84
2022-09-06T04:23:37.747Z,28.84
2022-09-06T04:26:08.577Z,28.90
2022-09-06T04:28:37.353Z,28.95
2022-09-06T04:31:06.839Z,28.99
2022-09-06T04:33:37.216Z,28.99
2022-09-06T04:36:09.768Z,28.98
2022-09-06T04:38:40.770Z,28.98
2022-09-06T04:41:11.474Z,28.98
2022-09-06T04:43:40.041Z,29.04
2022-09-06T04:46:20.826Z,29.10
2022-09-06T04:48:50.537Z,29.13
2022-09-06T04:51:19.296Z,29.19
2022-09-06T04:53:48.383Z,29.24
2022-09-06T04:56:20.475Z,29.26
2022-09-06T04:58:50.261Z,29.30
2022-09-06T05:01:18.990Z,29.32
2022-09-06T05:03:48.034Z,29.36
2022-09-06T05:06:26.855Z,29.42
2022-09-06T05:08:55.420Z,29.46
2022-09-06T05:11:24.046Z,29.56
2022-09-06T05:13:52.573Z,29.60
2022-09-06T05:16:21.132Z,29.68
2022-09-06T05:18:49.695Z,29.74
2022-09-06T05:21:18.400Z,29.83
2022-09-06T05:23:47.115Z,29.88
2022-09-06T05:26:15.829Z,29.93
2022-09-06T05:28:44.358Z,29.94
2022-09-06T05:31:24.372Z,29.96
2022-09-06T05:33:55.284Z,29.98
2022-09-06T05:36:24.656Z,29.97
2022-09-06T05:38:54.424Z,30.02
2022-09-06T05:41:24.370Z,30.03
2022-09-06T05:43:53.070Z,30.06
2022-09-06T05:46:22.055Z,30.08
2022-09-06T05:48:55.830Z,30.08
2022-09-06T05:51:25.171Z,30.09
2022-09-06T05:53:53.826Z,30.09
2022-09-06T05:56:23.393Z,30.09
2022-09-06T05:58:52.184Z,30.09
2022-09-06T06:01:22.495Z,30.13
2022-09-06T06:03:56.420Z,30.13
2022-09-06T06:06:26.514Z,30.14
2022-09-06T06:08:55.329Z,30.14
2022-09-06T06:11:24.863Z,30.17
2022-09-06T06:13:54.202Z,30.20
2022-09-06T06:16:24.297Z,30.17
2022-09-06T06:18:53.630Z,30.18
2022-09-06T06:21:33.442Z,30.19
2022-09-06T06:24:06.724Z,30.19
2022-09-06T06:26:37.158Z,30.18
2022-09-06T06:29:09.183Z,30.22
2022-09-06T06:31:39.957Z,30.22
2022-09-06T06:34:09.204Z,30.26
2022-09-06T06:36:39.265Z,30.27
2022-09-06T06:39:09.815Z,30.28
2022-09-06T06:41:38.857Z,30.28
2022-09-06T06:44:07.707Z,30.32
2022-09-06T06:46:38.650Z,30.35
2022-09-06T06:49:07.557Z,30.38
2022-09-06T06:51:40.690Z,30.42
2022-09-06T06:54:09.196Z,30.48
2022-09-06T06:56:40.253Z,30.53
2022-09-06T06:59:09.067Z,30.57
2022-09-06T07:01:38.673Z,30.60
2022-09-06T07:04:08.309Z,30.63
2022-09-06T07:12:32.337Z,30.75
2022-09-06T07:15:00.843Z,30.77
2022-09-06T07:17:29.869Z,30.77
2022-09-06T07:20:14.326Z,30.75
2022-09-06T07:22:44.156Z,30.70
2022-09-06T07:25:17.760Z,30.70
2022-09-06T07:27:49.853Z,30.70
2022-09-06T07:30:20.639Z,30.72
2022-09-06T07:32:49.551Z,30.73
2022-09-06T07:35:18.507Z,30.74
2022-09-06T07:37:53.882Z,30.74
2022-09-06T07:40:22.555Z,30.68
2022-09-06T07:42:51.322Z,30.67
2022-09-06T07:45:20.278Z,30.65
2022-09-06T07:53:16.577Z,30.51
2022-09-06T07:55:48.155Z,30.49
2022-09-06T07:58:17.027Z,30.43
2022-09-06T08:00:45.615Z,30.37
2022-09-06T08:03:14.693Z,30.32
2022-09-06T08:11:21.771Z,30.34
2022-09-06T08:13:52.274Z,30.36
2022-09-06T08:16:21.167Z,30.38
2022-09-06T08:18:58.013Z,30.40
2022-09-06T08:21:29.130Z,30.42
2022-09-06T08:24:02.763Z,30.43
2022-09-06T08:26:34.048Z,30.45
2022-09-06T08:29:04.601Z,30.45
2022-09-06T08:31:34.542Z,30.49
2022-09-06T08:34:03.921Z,30.49
2022-09-06T08:36:33.308Z,30.49
2022-09-06T08:39:04.353Z,30.48
2022-09-06T08:41:54.857Z,30.49
2022-09-06T08:47:19.276Z,30.48
2022-09-06T08:49:55.718Z,30.49
2022-09-06T08:53:00.139Z,30.49
2022-09-06T08:55:56.179Z,30.50
2022-09-06T08:58:30.946Z,30.49
2022-09-06T09:01:04.747Z,30.47
2022-09-06T09:03:38.951Z,30.45
2022-09-06T09:06:11.085Z,30.45
2022-09-06T09:09:07.128Z,30.44
2022-09-06T09:11:37.337Z,30.44
2022-09-06T09:14:18.910Z,30.43
2022-09-06T09:16:51.212Z,30.41
2022-09-06T09:19:19.850Z,30.40
2022-09-06T09:21:49.128Z,30.40
2022-09-06T09:24:17.812Z,30.37
2022-09-06T09:26:57.842Z,30.37
2022-09-06T09:29:29.397Z,30.39
2022-09-06T09:31:58.545Z,30.37
2022-09-06T09:34:36.238Z,30.38
2022-09-06T09:40:27.138Z,30.35
2022-09-06T09:42:59.160Z,30.33
2022-09-06T09:45:29.659Z,30.32
2022-09-06T09:47:58.725Z,30.32
2022-09-06T09:50:33.592Z,30.32
2022-09-06T09:53:13.708Z,30.29
2022-09-06T09:55:43.875Z,30.28
2022-09-06T09:58:30.949Z,30.26
2022-09-06T10:01:35.440Z,30.24
2022-09-06T10:07:18.948Z,30.19
2022-09-06T10:09:58.341Z,30.17
2022-09-06T10:12:44.974Z,30.13
2022-09-06T10:15:33.740Z,30.10
2022-09-06T10:18:02.458Z,30.07
2022-09-06T10:20:57.872Z,30.04
2022-09-06T10:26:40.329Z,29.97
2022-09-06T10:29:13.257Z,29.92
2022-09-06T10:31:54.172Z,29.90
2022-09-06T10:34:28.865Z,29.85
2022-09-06T10:37:03.399Z,29.81
2022-09-06T10:39:56.129Z,29.77
2022-09-06T10:42:49.355Z,29.74
2022-09-06T10:45:35.800Z,29.70
2022-09-06T10:48:17.831Z,29.65
2022-09-06T10:51:07.287Z,29.62
2022-09-06T10:54:03.280Z,29.58
2022-09-06T10:57:03.284Z,29.53
2022-09-06T10:59:51.879Z,29.48
2022-09-06T11:02:42.495Z,29.45
2022-09-06T11:11:04.562Z,29.31
2022-09-06T11:13:34.157Z,29.27
2022-09-06T11:16:05.970Z,29.22
2022-09-06T11:18:43.554Z,29.15
2022-09-06T11:21:24.233Z,29.10
2022-09-06T11:24:11.770Z,29.05
2022-09-06T11:27:02.544Z,29.01
2022-09-06T11:29:33.578Z,28.96
2022-09-06T11:32:19.548Z,28.92
2022-09-06T11:34:57.651Z,28.88
2022-09-06T11:37:45.077Z,28.85
2022-09-06T11:42:52.494Z,28.79
2022-09-06T11:45:40.057Z,28.76
2022-09-06T11:48:36.221Z,28.75
2022-09-06T11:51:04.778Z,28.72
2022-09-06T11:54:05.077Z,28.69
2022-09-06T11:56:53.905Z,28.66
2022-09-06T11:59:37.201Z,28.64
2022-09-06T12:02:36.516Z,28.61
2022-09-06T12:05:11.005Z,28.58
2022-09-06T12:08:00.360Z,28.56
2022-09-06T12:10:31.839Z,28.55
2022-09-06T12:13:00.531Z,28.54
2022-09-06T12:15:32.697Z,28.53
2022-09-06T12:18:03.371Z,28.52
2022-09-06T12:20:49.821Z,28.48
2022-09-06T12:23:36.804Z,28.46
2022-09-06T12:26:07.949Z,28.46
2022-09-06T12:28:42.550Z,28.44
2022-09-06T12:31:36.514Z,28.43
2022-09-06T12:34:37.017Z,28.43
2022-09-06T12:37:08.292Z,28.40
2022-09-06T12:39:37.051Z,28.39
2022-09-06T12:42:12.069Z,28.38
2022-09-06T12:44:44.814Z,28.37
2022-09-06T12:47:16.157Z,28.37
2022-09-06T12:49:45.224Z,28.36
2022-09-06T12:52:21.475Z,28.34
2022-09-06T12:54:52.748Z,28.32
2022-09-06T12:57:27.350Z,28.31
2022-09-06T12:59:59.068Z,28.28
2022-09-06T13:02:45.564Z,28.26
2022-09-06T13:05:15.573Z,28.23
2022-09-06T13:07:52.812Z,28.20
2022-09-06T13:10:26.523Z,28.17
2022-09-06T13:13:00.291Z,28.15
2022-09-06T13:15:33.004Z,28.13
2022-09-06T13:18:24.879Z,28.12
2022-09-06T13:21:05.048Z,28.10
2022-09-06T13:23:45.805Z,28.08
2022-09-06T13:26:14.685Z,28.07
2022-09-06T13:28:43.387Z,28.05
2022-09-06T13:31:16.773Z,28.03
2022-09-06T13:33:46.272Z,28.00
2022-09-06T13:36:31.979Z,27.99
2022-09-06T13:39:02.981Z,27.97
2022-09-06T13:41:39.413Z,27.96
2022-09-06T13:44:34.208Z,27.94
2022-09-06T13:47:03.532Z,27.92
2022-09-06T13:49:32.962Z,27.90
2022-09-06T13:52:04.612Z,27.89
2022-09-06T13:54:34.077Z,27.87
2022-09-06T13:57:03.100Z,27.84
2022-09-06T13:59:32.698Z,27.81
2022-09-06T14:02:08.742Z,27.80
2022-09-06T14:04:38.229Z,27.79
2022-09-06T14:07:06.917Z,27.78
2022-09-06T14:09:35.597Z,27.77
2022-09-06T14:12:35.564Z,27.76
2022-09-06T14:15:04.225Z,27.75
2022-09-06T14:17:34.212Z,27.75
2022-09-06T14:20:02.868Z,27.74
2022-09-06T14:22:31.817Z,27.73
2022-09-06T14:25:00.409Z,27.72
2022-09-06T14:27:29.053Z,27.72
2022-09-06T14:29:57.521Z,27.70
2022-09-06T14:32:26.127Z,27.69
2022-09-06T14:34:54.695Z,27.68
2022-09-06T14:37:23.391Z,27.65
2022-09-06T14:40:28.786Z,27.64
2022-09-06T14:42:59.141Z,27.63
2022-09-06T14:45:27.832Z,27.60
2022-09-06T14:47:56.473Z,27.60
2022-09-06T14:50:25.173Z,27.58
2022-09-06T14:52:53.818Z,27.57
2022-09-06T14:55:22.475Z,27.56
2022-09-06T14:57:51.334Z,27.55
2022-09-06T15:00:20.354Z,27.54
2022-09-06T15:02:48.965Z,27.53
2022-09-06T15:05:17.688Z,27.54
2022-09-06T15:07:46.661Z,27.52
2022-09-06T15:10:15.247Z,27.51
2022-09-06T15:12:43.899Z,27.50
2022-09-06T15:15:12.440Z,27.49
2022-09-06T15:17:41.036Z,27.49
2022-09-06T15:20:10.205Z,27.48
2022-09-06T15:22:39.901Z,27.49
2022-09-06T15:25:09.001Z,27.49
2022-09-06T15:27:37.572Z,27.50
2022-09-06T15:30:06.566Z,27.50
2022-09-06T15:32:35.230Z,27.50
2022-09-06T15:35:04.832Z,27.50
2022-09-06T15:37:33.442Z,27.51
2022-09-06T15:40:02.159Z,27.50
2022-09-06T15:42:30.754Z,27.50
2022-09-06T15:44:59.311Z,27.51
2022-09-06T15:47:27.918Z,27.50
2022-09-06T15:49:56.513Z,27.50
2022-09-06T15:52:25.130Z,27.50
2022-09-06T15:55:11.684Z,27.50
2022-09-06T15:57:40.298Z,27.48
2022-09-06T16:00:09.558Z,27.49
2022-09-06T16:02:38.349Z,27.49
2022-09-06T16:05:07.557Z,27.49
2022-09-06T16:07:39.272Z,27.48
2022-09-06T16:10:08.018Z,27.48
2022-09-06T16:12:36.572Z,27.47
2022-09-06T16:15:05.821Z,27.48
2022-09-06T16:17:34.678Z,27.48
2022-09-06T16:20:03.943Z,27.47
2022-09-06T16:22:32.798Z,27.47
2022-09-06T16:25:01.354Z,27.45
2022-09-06T16:27:30.101Z,27.45
2022-09-06T16:29:59.765Z,27.45
2022-09-06T16:32:28.412Z,27.43
2022-09-06T16:34:57.019Z,27.40
2022-09-06T16:37:25.624Z,27.39
2022-09-06T16:39:54.366Z,27.37
2022-09-06T16:42:23.714Z,27.36
2022-09-06T16:44:53.920Z,27.36
2022-09-06T16:47:22.565Z,27.35
2022-09-06T16:49:51.413Z,27.35
2022-09-06T16:52:19.958Z,27.35
2022-09-06T16:54:48.534Z,27.33
2022-09-06T16:57:17.197Z,27.33
2022-09-06T16:59:46.342Z,27.31
2022-09-06T17:02:14.880Z,27.32
2022-09-06T17:04:43.715Z,27.32
2022-09-06T17:07:12.353Z,27.32
2022-09-06T17:09:40.900Z,27.31
2022-09-06T17:12:09.595Z,27.31
2022-09-06T17:14:38.231Z,27.30
2022-09-06T17:17:06.901Z,27.29
2022-09-06T17:19:42.317Z,27.29
2022-09-06T17:22:12.746Z,27.29
2022-09-06T17:24:42.520Z,27.29
2022-09-06T17:27:11.667Z,27.30
2022-09-06T17:29:41.134Z,27.30
2022-09-06T17:32:11.250Z,27.31
2022-09-06T17:34:41.414Z,27.30
2022-09-06T17:37:10.046Z,27.31
2022-09-06T17:39:39.462Z,27.31
2022-09-06T17:42:08.877Z,27.31
2022-09-06T17:44:37.426Z,27.32
2022-09-06T17:47:12.951Z,27.31
2022-09-06T17:49:43.594Z,27.09
2022-09-06T17:52:12.859Z,26.89
2022-09-06T17:54:41.434Z,26.46
2022-09-06T17:57:10.201Z,26.15
2022-09-06T17:59:39.478Z,25.99
2022-09-06T18:02:08.794Z,25.82
2022-09-06T18:04:37.752Z,25.72
2022-09-06T18:07:06.503Z,25.64
2022-09-06T18:09:35.130Z,25.58
2022-09-06T18:12:03.866Z,25.51
2022-09-06T18:14:32.769Z,25.44
2022-09-06T18:17:01.337Z,25.39
2022-09-06T18:19:30.043Z,25.30
2022-09-06T18:21:58.890Z,25.18
2022-09-06T18:24:28.185Z,25.09
2022-09-06T18:26:56.701Z,25.05
2022-09-06T18:29:25.304Z,25.00
2022-09-06T18:31:55.116Z,24.96
2022-09-06T18:34:23.997Z,24.91
2022-09-06T18:36:53.473Z,24.88
2022-09-06T18:39:22.226Z,24.85
2022-09-06T18:42:02.722Z,24.83
2022-09-06T18:44:36.263Z,24.83
2022-09-06T18:47:07.768Z,24.82
2022-09-06T18:49:40.538Z,24.82
2022-09-06T18:52:11.956Z,24.83
2022-09-06T18:54:40.716Z,24.83
2022-09-06T18:57:09.678Z,24.85
2022-09-06T18:59:38.252Z,24.85
2022-09-06T19:02:06.916Z,24.87
2022-09-06T19:04:35.503Z,24.89
2022-09-06T19:07:05.006Z,24.90
2022-09-06T19:09:33.908Z,24.91
2022-09-06T19:12:02.594Z,24.91
2022-09-06T19:14:31.130Z,24.93
2022-09-06T19:16:59.608Z,24.94
2022-09-06T19:19:28.312Z,24.95
2022-09-06T19:21:56.869Z,24.97
2022-09-06T19:24:26.673Z,25.01
2022-09-06T19:26:56.668Z,25.02
2022-09-06T19:29:25.246Z,25.02
2022-09-06T19:31:53.992Z,25.04
2022-09-06T19:34:23.055Z,25.05
2022-09-06T19:36:56.110Z,25.07
2022-09-06T19:39:26.036Z,25.08
2022-09-06T19:41:54.661Z,25.10
2022-09-06T19:44:23.687Z,25.11
2022-09-06T19:46:52.468Z,25.12
2022-09-06T19:49:21.648Z,25.13
2022-09-06T19:51:51.940Z,25.13
2022-09-06T19:54:21.370Z,25.13
2022-09-06T19:56:50.652Z,25.14
2022-09-06T19:59:19.261Z,25.15
2022-09-06T20:01:48.657Z,25.15
2022-09-06T20:04:17.991Z,25.16
2022-09-06T20:06:47.129Z,25.16
2022-09-06T20:09:17.002Z,25.16
2022-09-06T20:11:45.770Z,25.14
2022-09-06T20:14:14.729Z,25.15
2022-09-06T20:16:44.057Z,25.15
2022-09-06T20:19:15.566Z,25.13
2022-09-06T20:21:45.461Z,25.14
2022-09-06T20:24:14.087Z,25.15
2022-09-06T20:26:42.760Z,25.14
2022-09-06T20:29:11.349Z,25.14
2022-09-06T20:31:40.303Z,25.15
2022-09-06T20:34:09.300Z,25.15
2022-09-06T20:36:38.304Z,25.15
2022-09-06T20:39:06.969Z,25.16
2022-09-06T20:41:35.617Z,25.15
2022-09-06T20:44:04.824Z,25.14
2022-09-06T20:46:37.807Z,25.14
2022-09-06T20:49:07.745Z,25.13
2022-09-06T20:51:39.602Z,25.13
2022-09-06T20:54:08.383Z,25.14
2022-09-06T20:56:40.238Z,25.13
2022-09-06T20:59:12.015Z,25.11
2022-09-06T21:01:46.314Z,25.12
2022-09-06T21:04:17.490Z,25.11
2022-09-06T21:06:47.665Z,25.12
2022-09-06T21:09:16.528Z,25.12
2022-09-06T21:11:46.320Z,25.11
2022-09-06T21:14:15.252Z,25.12
2022-09-06T21:16:44.509Z,25.12
2022-09-06T21:19:13.884Z,25.12
2022-09-06T21:21:42.907Z,25.13
2022-09-06T21:24:12.419Z,25.14
2022-09-06T21:26:43.071Z,25.14
2022-09-06T21:29:12.724Z,25.15
2022-09-06T21:31:41.279Z,25.14
2022-09-06T21:34:16.618Z,25.14
2022-09-06T21:36:46.116Z,25.14
2022-09-06T21:39:15.854Z,25.13
2022-09-06T21:41:45.668Z,25.12
2022-09-06T21:44:14.576Z,25.12
2022-09-06T21:46:43.789Z,25.11
2022-09-06T21:49:14.907Z,25.10
2022-09-06T21:51:43.865Z,25.09
2022-09-06T21:54:12.889Z,25.07
2022-09-06T21:56:42.299Z,25.07
2022-09-06T21:59:12.348Z,25.07
2022-09-06T22:01:45.059Z,25.06
2022-09-06T22:04:15.056Z,25.05
2022-09-06T22:06:43.693Z,25.06
2022-09-06T22:09:14.090Z,25.06
2022-09-06T22:11:45.261Z,25.06
2022-09-06T22:14:15.652Z,25.05
2022-09-06T22:16:44.901Z,25.04
2022-09-06T22:19:13.683Z,25.03
2022-09-06T22:21:42.400Z,25.01
2022-09-06T22:24:13.642Z,25.00
2022-09-06T22:26:43.225Z,25.01
2022-09-06T22:29:14.572Z,24.99
2022-09-06T22:31:43.698Z,25.01
2022-09-06T22:34:12.594Z,25.01
2022-09-06T22:36:41.259Z,25.01
2022-09-06T22:39:10.632Z,25.00
2022-09-06T22:41:39.822Z,25.00
2022-09-06T22:44:08.699Z,24.98
2022-09-06T22:46:39.317Z,24.98
2022-09-06T22:49:08.018Z,24.97
2022-09-06T22:51:36.655Z,24.97
2022-09-06T22:54:05.689Z,24.97
2022-09-06T22:56:34.586Z,24.96
2022-09-06T22:59:03.561Z,24.96
2022-09-06T23:01:33.884Z,24.95
2022-09-06T23:04:03.246Z,24.95
2022-09-06T23:06:31.950Z,24.96
2022-09-06T23:09:00.516Z,24.96
2022-09-06T23:11:29.420Z,24.98
2022-09-06T23:13:59.343Z,24.98
2022-09-06T23:16:29.392Z,25.00
2022-09-06T23:18:58.406Z,25.01
2022-09-06T23:21:27.949Z,25.01
2022-09-06T23:23:58.282Z,25.01
2022-09-06T23:26:30.578Z,25.03
2022-09-06T23:28:59.627Z,25.04
2022-09-06T23:31:32.448Z,25.06
2022-09-06T23:34:03.475Z,25.08
2022-09-06T23:36:32.949Z,25.07
2022-09-06T23:39:03.320Z,25.08
2022-09-06T23:41:32.149Z,25.10
2022-09-06T23:44:01.088Z,25.11
2022-09-06T23:46:30.517Z,25.11
2022-09-06T23:48:59.416Z,25.13
2022-09-06T23:51:28.022Z,25.14
2022-09-06T23:53:56.649Z,25.15
2022-09-06T23:56:25.295Z,25.18
2022-09-06T23:58:53.898Z,25.20
